sensor_id;sensor_type;location;lat;lon;timestamp;P1;durP1;ratioP1;P2;durP2;ratioP2
2966;SDS011;1493;51.496;7.210;2023-04-21T00:02:23;28.93;;;19.00;;
2966;SDS011;1493;51.496;7.210;2023-04-21T00:04:51;26.03;;;19.07;;
2966;SDS011;1493;51.496;7.210;2023-04-21T00:07:18;28.17;;;21.70;;
2966;SDS011;1493;51.496;7.210;2023-04-21T00:09:46;32.43;;;22.33;;
2966;SDS011;1493;51.496;7.210;2023-04-21T00:12:14;28.00;;;20.50;;
2966;SDS011;1493;51.496;7.210;2023-04-21T00:14:41;35.10;;;24.60;;
2966;SDS011;1493;51.496;7.210;2023-04-21T00:17:08;32.67;;;22.17;;
2966;SDS011;1493;51.496;7.210;2023-04-21T00:19:35;28.67;;;21.57;;
2966;SDS011;1493;51.496;7.210;2023-04-21T00:22:02;28.17;;;20.50;;
2966;SDS011;1493;51.496;7.210;2023-04-21T00:24:32;28.17;;;20.17;;
2966;SDS011;1493;51.496;7.210;2023-04-21T00:26:59;33.53;;;23.00;;
2966;SDS011;1493;51.496;7.210;2023-04-21T00:29:27;30.17;;;21.03;;
2966;SDS011;1493;51.496;7.210;2023-04-21T00:31:53;35.23;;;23.67;;
2966;SDS011;1493;51.496;7.210;2023-04-21T00:34:20;32.07;;;21.30;;
2966;SDS011;1493;51.496;7.210;2023-04-21T00:36:47;30.57;;;20.97;;
2966;SDS011;1493;51.496;7.210;2023-04-21T00:39:14;25.73;;;20.10;;
2966;SDS011;1493;51.496;7.210;2023-04-21T00:41:41;29.30;;;20.43;;
2966;SDS011;1493;51.496;7.210;2023-04-21T00:44:08;28.87;;;22.10;;
2966;SDS011;1493;51.496;7.210;2023-04-21T00:46:36;34.30;;;23.10;;
2966;SDS011;1493;51.496;7.210;2023-04-21T00:49:04;31.30;;;22.63;;
2966;SDS011;1493;51.496;7.210;2023-04-21T00:51:32;31.60;;;20.97;;
2966;SDS011;1493;51.496;7.210;2023-04-21T00:54:00;32.20;;;22.40;;
2966;SDS011;1493;51.496;7.210;2023-04-21T00:56:30;35.40;;;23.23;;
2966;SDS011;1493;51.496;7.210;2023-04-21T00:58:58;33.10;;;24.63;;
2966;SDS011;1493;51.496;7.210;2023-04-21T01:01:26;32.60;;;22.83;;
2966;SDS011;1493;51.496;7.210;2023-04-21T01:03:57;27.87;;;20.97;;
2966;SDS011;1493;51.496;7.210;2023-04-21T01:06:24;29.67;;;20.77;;
2966;SDS011;1493;51.496;7.210;2023-04-21T01:08:52;31.97;;;22.77;;
2966;SDS011;1493;51.496;7.210;2023-04-21T01:11:20;34.13;;;22.90;;
2966;SDS011;1493;51.496;7.210;2023-04-21T01:13:47;36.13;;;24.87;;
2966;SDS011;1493;51.496;7.210;2023-04-21T01:16:17;31.27;;;22.23;;
2966;SDS011;1493;51.496;7.210;2023-04-21T01:18:44;38.73;;;25.60;;
2966;SDS011;1493;51.496;7.210;2023-04-21T01:21:12;34.40;;;23.03;;
2966;SDS011;1493;51.496;7.210;2023-04-21T01:23:40;31.93;;;23.27;;
2966;SDS011;1493;51.496;7.210;2023-04-21T01:26:08;36.80;;;25.03;;
2966;SDS011;1493;51.496;7.210;2023-04-21T01:28:34;34.10;;;23.07;;
2966;SDS011;1493;51.496;7.210;2023-04-21T01:31:02;32.57;;;24.60;;
2966;SDS011;1493;51.496;7.210;2023-04-21T01:33:29;33.93;;;23.40;;
2966;SDS011;1493;51.496;7.210;2023-04-21T01:35:56;33.43;;;23.33;;
2966;SDS011;1493;51.496;7.210;2023-04-21T01:38:25;35.70;;;24.40;;
2966;SDS011;1493;51.496;7.210;2023-04-21T01:40:53;34.60;;;24.80;;
2966;SDS011;1493;51.496;7.210;2023-04-21T01:43:21;40.60;;;25.93;;
2966;SDS011;1493;51.496;7.210;2023-04-21T01:45:49;35.30;;;25.23;;
2966;SDS011;1493;51.496;7.210;2023-04-21T01:48:16;33.70;;;23.60;;
2966;SDS011;1493;51.496;7.210;2023-04-21T01:50:43;34.83;;;25.83;;
2966;SDS011;1493;51.496;7.210;2023-04-21T01:53:10;37.00;;;24.47;;
2966;SDS011;1493;51.496;7.210;2023-04-21T01:55:37;36.17;;;25.67;;
2966;SDS011;1493;51.496;7.210;2023-04-21T01:58:05;32.87;;;22.93;;
2966;SDS011;1493;51.496;7.210;2023-04-21T02:00:35;38.40;;;24.07;;
2966;SDS011;1493;51.496;7.210;2023-04-21T02:03:01;32.20;;;24.17;;
2966;SDS011;1493;51.496;7.210;2023-04-21T02:05:28;35.67;;;25.70;;
2966;SDS011;1493;51.496;7.210;2023-04-21T02:07:55;34.87;;;24.60;;
2966;SDS011;1493;51.496;7.210;2023-04-21T02:10:22;35.47;;;23.77;;
2966;SDS011;1493;51.496;7.210;2023-04-21T02:12:49;37.80;;;25.77;;
2966;SDS011;1493;51.496;7.210;2023-04-21T02:15:17;34.43;;;24.43;;
2966;SDS011;1493;51.496;7.210;2023-04-21T02:17:44;35.27;;;24.73;;
2966;SDS011;1493;51.496;7.210;2023-04-21T02:20:11;34.57;;;25.60;;
2966;SDS011;1493;51.496;7.210;2023-04-21T02:22:38;32.97;;;25.37;;
2966;SDS011;1493;51.496;7.210;2023-04-21T02:25:05;32.63;;;25.07;;
2966;SDS011;1493;51.496;7.210;2023-04-21T02:27:32;38.67;;;25.10;;
2966;SDS011;1493;51.496;7.210;2023-04-21T02:29:59;33.90;;;24.40;;
2966;SDS011;1493;51.496;7.210;2023-04-21T02:32:27;34.97;;;24.30;;
2966;SDS011;1493;51.496;7.210;2023-04-21T02:34:54;37.17;;;23.47;;
2966;SDS011;1493;51.496;7.210;2023-04-21T02:37:22;39.40;;;26.63;;
2966;SDS011;1493;51.496;7.210;2023-04-21T02:39:49;35.03;;;25.63;;
2966;SDS011;1493;51.496;7.210;2023-04-21T02:42:16;33.23;;;27.07;;
2966;SDS011;1493;51.496;7.210;2023-04-21T02:44:42;38.57;;;25.47;;
2966;SDS011;1493;51.496;7.210;2023-04-21T02:47:09;40.87;;;29.10;;
2966;SDS011;1493;51.496;7.210;2023-04-21T02:49:40;39.83;;;26.50;;
2966;SDS011;1493;51.496;7.210;2023-04-21T02:52:07;38.07;;;25.50;;
2966;SDS011;1493;51.496;7.210;2023-04-21T02:54:34;40.17;;;27.50;;
2966;SDS011;1493;51.496;7.210;2023-04-21T02:57:01;38.53;;;27.00;;
2966;SDS011;1493;51.496;7.210;2023-04-21T02:59:27;41.53;;;29.33;;
2966;SDS011;1493;51.496;7.210;2023-04-21T03:01:54;46.20;;;29.97;;
2966;SDS011;1493;51.496;7.210;2023-04-21T03:04:21;42.37;;;27.33;;
2966;SDS011;1493;51.496;7.210;2023-04-21T03:06:51;36.23;;;25.43;;
2966;SDS011;1493;51.496;7.210;2023-04-21T03:09:18;39.27;;;28.17;;
2966;SDS011;1493;51.496;7.210;2023-04-21T03:11:44;42.63;;;29.57;;
2966;SDS011;1493;51.496;7.210;2023-04-21T03:14:11;38.33;;;28.93;;
2966;SDS011;1493;51.496;7.210;2023-04-21T03:16:38;40.50;;;27.43;;
2966;SDS011;1493;51.496;7.210;2023-04-21T03:19:05;38.23;;;27.50;;
2966;SDS011;1493;51.496;7.210;2023-04-21T03:21:32;37.73;;;26.50;;
2966;SDS011;1493;51.496;7.210;2023-04-21T03:24:02;38.17;;;29.37;;
2966;SDS011;1493;51.496;7.210;2023-04-21T03:26:30;35.47;;;25.57;;
2966;SDS011;1493;51.496;7.210;2023-04-21T03:28:57;35.87;;;27.10;;
2966;SDS011;1493;51.496;7.210;2023-04-21T03:31:24;37.60;;;28.00;;
2966;SDS011;1493;51.496;7.210;2023-04-21T03:33:51;40.90;;;29.63;;
2966;SDS011;1493;51.496;7.210;2023-04-21T03:36:18;42.60;;;28.40;;
2966;SDS011;1493;51.496;7.210;2023-04-21T03:38:44;42.43;;;29.87;;
2966;SDS011;1493;51.496;7.210;2023-04-21T03:41:12;41.00;;;29.23;;
2966;SDS011;1493;51.496;7.210;2023-04-21T03:43:39;38.70;;;28.33;;
2966;SDS011;1493;51.496;7.210;2023-04-21T03:46:06;43.33;;;30.47;;
2966;SDS011;1493;51.496;7.210;2023-04-21T03:48:33;39.00;;;28.43;;
2966;SDS011;1493;51.496;7.210;2023-04-21T03:51:00;40.27;;;28.40;;
2966;SDS011;1493;51.496;7.210;2023-04-21T03:53:27;39.53;;;28.23;;
2966;SDS011;1493;51.496;7.210;2023-04-21T03:55:54;42.07;;;28.90;;
2966;SDS011;1493;51.496;7.210;2023-04-21T03:58:22;39.67;;;27.50;;
2966;SDS011;1493;51.496;7.210;2023-04-21T04:00:49;43.50;;;29.17;;
2966;SDS011;1493;51.496;7.210;2023-04-21T04:03:16;48.77;;;30.37;;
2966;SDS011;1493;51.496;7.210;2023-04-21T04:05:42;42.87;;;28.87;;
2966;SDS011;1493;51.496;7.210;2023-04-21T04:08:09;43.47;;;29.10;;
2966;SDS011;1493;51.496;7.210;2023-04-21T04:10:36;41.67;;;28.47;;
2966;SDS011;1493;51.496;7.210;2023-04-21T04:13:03;39.60;;;28.97;;
2966;SDS011;1493;51.496;7.210;2023-04-21T04:15:31;47.30;;;30.33;;
2966;SDS011;1493;51.496;7.210;2023-04-21T04:17:58;44.13;;;30.07;;
2966;SDS011;1493;51.496;7.210;2023-04-21T04:20:25;42.53;;;29.40;;
2966;SDS011;1493;51.496;7.210;2023-04-21T04:22:52;42.40;;;27.83;;
2966;SDS011;1493;51.496;7.210;2023-04-21T04:25:19;38.40;;;28.47;;
2966;SDS011;1493;51.496;7.210;2023-04-21T04:27:46;39.43;;;28.97;;
2966;SDS011;1493;51.496;7.210;2023-04-21T04:30:14;45.20;;;29.57;;
2966;SDS011;1493;51.496;7.210;2023-04-21T04:32:42;41.27;;;29.00;;
2966;SDS011;1493;51.496;7.210;2023-04-21T04:35:09;43.73;;;28.17;;
2966;SDS011;1493;51.496;7.210;2023-04-21T04:37:36;35.30;;;26.63;;
2966;SDS011;1493;51.496;7.210;2023-04-21T04:40:05;43.67;;;29.73;;
2966;SDS011;1493;51.496;7.210;2023-04-21T04:42:36;39.53;;;27.70;;
2966;SDS011;1493;51.496;7.210;2023-04-21T04:45:03;41.70;;;29.83;;
2966;SDS011;1493;51.496;7.210;2023-04-21T04:47:32;36.80;;;27.73;;
2966;SDS011;1493;51.496;7.210;2023-04-21T04:50:00;36.50;;;25.77;;
2966;SDS011;1493;51.496;7.210;2023-04-21T04:52:27;35.70;;;26.67;;
2966;SDS011;1493;51.496;7.210;2023-04-21T04:54:54;41.23;;;28.57;;
2966;SDS011;1493;51.496;7.210;2023-04-21T04:57:21;39.50;;;27.17;;
2966;SDS011;1493;51.496;7.210;2023-04-21T04:59:48;38.40;;;27.80;;
2966;SDS011;1493;51.496;7.210;2023-04-21T05:02:19;33.20;;;26.37;;
2966;SDS011;1493;51.496;7.210;2023-04-21T05:04:46;38.30;;;27.80;;
2966;SDS011;1493;51.496;7.210;2023-04-21T05:07:14;40.70;;;27.70;;
2966;SDS011;1493;51.496;7.210;2023-04-21T05:09:41;38.40;;;28.40;;
2966;SDS011;1493;51.496;7.210;2023-04-21T05:12:08;46.80;;;30.10;;
2966;SDS011;1493;51.496;7.210;2023-04-21T05:14:35;36.90;;;27.03;;
2966;SDS011;1493;51.496;7.210;2023-04-21T05:17:02;36.43;;;27.17;;
2966;SDS011;1493;51.496;7.210;2023-04-21T05:19:28;36.87;;;26.23;;
2966;SDS011;1493;51.496;7.210;2023-04-21T05:21:57;43.13;;;30.30;;
2966;SDS011;1493;51.496;7.210;2023-04-21T05:24:27;42.33;;;29.30;;
2966;SDS011;1493;51.496;7.210;2023-04-21T05:26:53;38.83;;;30.67;;
2966;SDS011;1493;51.496;7.210;2023-04-21T05:29:20;39.77;;;28.87;;
2966;SDS011;1493;51.496;7.210;2023-04-21T05:31:47;37.27;;;25.73;;
2966;SDS011;1493;51.496;7.210;2023-04-21T05:34:14;43.87;;;28.50;;
2966;SDS011;1493;51.496;7.210;2023-04-21T05:36:41;39.80;;;30.20;;
2966;SDS011;1493;51.496;7.210;2023-04-21T05:39:07;44.60;;;29.23;;
2966;SDS011;1493;51.496;7.210;2023-04-21T05:41:36;39.10;;;27.70;;
2966;SDS011;1493;51.496;7.210;2023-04-21T05:44:02;38.90;;;27.60;;
2966;SDS011;1493;51.496;7.210;2023-04-21T05:46:29;43.10;;;27.67;;
2966;SDS011;1493;51.496;7.210;2023-04-21T05:48:58;42.67;;;29.33;;
2966;SDS011;1493;51.496;7.210;2023-04-21T05:51:26;46.00;;;30.97;;
2966;SDS011;1493;51.496;7.210;2023-04-21T05:53:53;52.03;;;32.33;;
2966;SDS011;1493;51.496;7.210;2023-04-21T05:56:20;47.33;;;32.17;;
2966;SDS011;1493;51.496;7.210;2023-04-21T05:58:48;44.80;;;30.03;;
2966;SDS011;1493;51.496;7.210;2023-04-21T06:01:16;49.90;;;29.70;;
2966;SDS011;1493;51.496;7.210;2023-04-21T06:03:43;45.37;;;29.87;;
2966;SDS011;1493;51.496;7.210;2023-04-21T06:06:12;41.80;;;29.70;;
2966;SDS011;1493;51.496;7.210;2023-04-21T06:08:39;52.77;;;34.30;;
2966;SDS011;1493;51.496;7.210;2023-04-21T06:11:06;44.80;;;33.37;;
2966;SDS011;1493;51.496;7.210;2023-04-21T06:13:33;42.80;;;30.00;;
2966;SDS011;1493;51.496;7.210;2023-04-21T06:16:01;41.83;;;28.60;;
2966;SDS011;1493;51.496;7.210;2023-04-21T06:18:28;45.50;;;32.07;;
2966;SDS011;1493;51.496;7.210;2023-04-21T06:20:55;40.13;;;29.00;;
2966;SDS011;1493;51.496;7.210;2023-04-21T06:23:22;35.23;;;27.03;;
2966;SDS011;1493;51.496;7.210;2023-04-21T06:25:57;38.10;;;27.53;;
2966;SDS011;1493;51.496;7.210;2023-04-21T06:28:25;39.17;;;28.27;;
2966;SDS011;1493;51.496;7.210;2023-04-21T06:30:52;38.60;;;27.60;;
2966;SDS011;1493;51.496;7.210;2023-04-21T06:33:20;38.43;;;28.50;;
2966;SDS011;1493;51.496;7.210;2023-04-21T06:35:46;39.97;;;26.43;;
2966;SDS011;1493;51.496;7.210;2023-04-21T06:38:13;37.73;;;27.87;;
2966;SDS011;1493;51.496;7.210;2023-04-21T06:40:40;36.00;;;28.90;;
2966;SDS011;1493;51.496;7.210;2023-04-21T06:43:07;33.63;;;26.37;;
2966;SDS011;1493;51.496;7.210;2023-04-21T06:45:34;36.30;;;27.80;;
2966;SDS011;1493;51.496;7.210;2023-04-21T06:48:01;34.63;;;27.40;;
2966;SDS011;1493;51.496;7.210;2023-04-21T06:50:29;35.47;;;27.00;;
2966;SDS011;1493;51.496;7.210;2023-04-21T06:52:56;37.67;;;29.03;;
2966;SDS011;1493;51.496;7.210;2023-04-21T06:55:22;37.70;;;28.60;;
2966;SDS011;1493;51.496;7.210;2023-04-21T06:57:49;32.33;;;26.83;;
2966;SDS011;1493;51.496;7.210;2023-04-21T07:00:16;34.30;;;27.10;;
2966;SDS011;1493;51.496;7.210;2023-04-21T07:02:43;29.80;;;23.80;;
2966;SDS011;1493;51.496;7.210;2023-04-21T07:05:10;28.67;;;24.33;;
2966;SDS011;1493;51.496;7.210;2023-04-21T07:07:38;31.93;;;24.60;;
2966;SDS011;1493;51.496;7.210;2023-04-21T07:10:05;29.70;;;24.57;;
2966;SDS011;1493;51.496;7.210;2023-04-21T07:12:33;30.70;;;24.57;;
2966;SDS011;1493;51.496;7.210;2023-04-21T07:15:00;28.30;;;24.13;;
2966;SDS011;1493;51.496;7.210;2023-04-21T07:17:26;28.40;;;23.30;;
2966;SDS011;1493;51.496;7.210;2023-04-21T07:19:53;32.13;;;25.73;;
2966;SDS011;1493;51.496;7.210;2023-04-21T07:22:20;24.40;;;21.67;;
2966;SDS011;1493;51.496;7.210;2023-04-21T07:24:48;29.50;;;23.83;;
2966;SDS011;1493;51.496;7.210;2023-04-21T07:27:15;29.00;;;23.30;;
2966;SDS011;1493;51.496;7.210;2023-04-21T07:29:43;25.80;;;22.33;;
2966;SDS011;1493;51.496;7.210;2023-04-21T07:32:10;30.37;;;24.37;;
2966;SDS011;1493;51.496;7.210;2023-04-21T07:34:37;27.07;;;22.03;;
2966;SDS011;1493;51.496;7.210;2023-04-21T07:37:04;29.27;;;23.03;;
2966;SDS011;1493;51.496;7.210;2023-04-21T07:39:30;27.30;;;22.67;;
2966;SDS011;1493;51.496;7.210;2023-04-21T07:41:59;27.70;;;24.37;;
2966;SDS011;1493;51.496;7.210;2023-04-21T07:44:25;29.47;;;22.13;;
2966;SDS011;1493;51.496;7.210;2023-04-21T07:46:53;30.90;;;24.50;;
2966;SDS011;1493;51.496;7.210;2023-04-21T07:49:20;27.70;;;23.43;;
2966;SDS011;1493;51.496;7.210;2023-04-21T07:51:47;25.37;;;21.40;;
2966;SDS011;1493;51.496;7.210;2023-04-21T07:54:13;26.33;;;22.10;;
2966;SDS011;1493;51.496;7.210;2023-04-21T07:56:40;28.33;;;21.80;;
2966;SDS011;1493;51.496;7.210;2023-04-21T07:59:08;23.20;;;20.40;;
2966;SDS011;1493;51.496;7.210;2023-04-21T08:01:35;27.03;;;21.87;;
2966;SDS011;1493;51.496;7.210;2023-04-21T08:04:02;28.10;;;22.20;;
2966;SDS011;1493;51.496;7.210;2023-04-21T08:06:29;29.37;;;23.73;;
2966;SDS011;1493;51.496;7.210;2023-04-21T08:08:56;31.43;;;22.90;;
2966;SDS011;1493;51.496;7.210;2023-04-21T08:11:23;26.33;;;21.93;;
2966;SDS011;1493;51.496;7.210;2023-04-21T08:13:52;29.03;;;23.13;;
2966;SDS011;1493;51.496;7.210;2023-04-21T08:16:20;27.57;;;21.03;;
2966;SDS011;1493;51.496;7.210;2023-04-21T08:18:47;28.80;;;22.80;;
2966;SDS011;1493;51.496;7.210;2023-04-21T08:21:14;28.53;;;23.17;;
2966;SDS011;1493;51.496;7.210;2023-04-21T08:23:41;25.90;;;21.20;;
2966;SDS011;1493;51.496;7.210;2023-04-21T08:26:08;28.67;;;24.50;;
2966;SDS011;1493;51.496;7.210;2023-04-21T08:28:34;29.50;;;22.83;;
2966;SDS011;1493;51.496;7.210;2023-04-21T08:31:02;29.50;;;23.73;;
2966;SDS011;1493;51.496;7.210;2023-04-21T08:33:30;29.40;;;22.20;;
2966;SDS011;1493;51.496;7.210;2023-04-21T08:35:57;24.20;;;21.63;;
2966;SDS011;1493;51.496;7.210;2023-04-21T08:38:24;28.93;;;21.80;;
2966;SDS011;1493;51.496;7.210;2023-04-21T08:40:50;30.07;;;21.20;;
2966;SDS011;1493;51.496;7.210;2023-04-21T08:43:18;26.13;;;20.90;;
2966;SDS011;1493;51.496;7.210;2023-04-21T08:45:45;25.80;;;23.10;;
2966;SDS011;1493;51.496;7.210;2023-04-21T08:48:12;22.43;;;19.97;;
2966;SDS011;1493;51.496;7.210;2023-04-21T08:50:44;29.27;;;21.23;;
2966;SDS011;1493;51.496;7.210;2023-04-21T08:53:13;25.30;;;20.53;;
2966;SDS011;1493;51.496;7.210;2023-04-21T08:55:40;26.27;;;20.60;;
2966;SDS011;1493;51.496;7.210;2023-04-21T08:58:08;25.17;;;20.03;;
2966;SDS011;1493;51.496;7.210;2023-04-21T09:00:35;26.63;;;21.67;;
2966;SDS011;1493;51.496;7.210;2023-04-21T09:03:03;27.00;;;22.33;;
2966;SDS011;1493;51.496;7.210;2023-04-21T09:05:32;27.00;;;21.93;;
2966;SDS011;1493;51.496;7.210;2023-04-21T09:08:09;25.93;;;22.03;;
2966;SDS011;1493;51.496;7.210;2023-04-21T09:10:43;24.20;;;21.13;;
2966;SDS011;1493;51.496;7.210;2023-04-21T09:13:10;25.10;;;20.80;;
2966;SDS011;1493;51.496;7.210;2023-04-21T09:15:37;28.33;;;23.07;;
2966;SDS011;1493;51.496;7.210;2023-04-21T09:18:09;27.00;;;23.83;;
2966;SDS011;1493;51.496;7.210;2023-04-21T09:20:38;25.20;;;21.27;;
2966;SDS011;1493;51.496;7.210;2023-04-21T09:23:05;25.30;;;18.93;;
2966;SDS011;1493;51.496;7.210;2023-04-21T09:25:33;23.83;;;20.90;;
2966;SDS011;1493;51.496;7.210;2023-04-21T09:28:01;23.07;;;19.43;;
2966;SDS011;1493;51.496;7.210;2023-04-21T09:30:29;26.03;;;21.17;;
2966;SDS011;1493;51.496;7.210;2023-04-21T09:33:00;23.60;;;21.10;;
2966;SDS011;1493;51.496;7.210;2023-04-21T09:35:27;24.90;;;20.03;;
2966;SDS011;1493;51.496;7.210;2023-04-21T09:37:58;25.07;;;21.00;;
2966;SDS011;1493;51.496;7.210;2023-04-21T09:40:26;24.40;;;21.20;;
2966;SDS011;1493;51.496;7.210;2023-04-21T09:42:56;23.90;;;21.30;;
2966;SDS011;1493;51.496;7.210;2023-04-21T09:45:24;24.60;;;19.90;;
2966;SDS011;1493;51.496;7.210;2023-04-21T09:47:53;26.90;;;22.17;;
2966;SDS011;1493;51.496;7.210;2023-04-21T09:50:22;22.50;;;19.60;;
2966;SDS011;1493;51.496;7.210;2023-04-21T09:52:50;23.27;;;20.10;;
2966;SDS011;1493;51.496;7.210;2023-04-21T09:55:18;23.17;;;20.43;;
2966;SDS011;1493;51.496;7.210;2023-04-21T09:57:51;25.90;;;21.37;;
2966;SDS011;1493;51.496;7.210;2023-04-21T10:00:21;26.30;;;21.67;;
2966;SDS011;1493;51.496;7.210;2023-04-21T10:02:52;26.10;;;21.27;;
2966;SDS011;1493;51.496;7.210;2023-04-21T10:05:20;25.13;;;20.93;;
2966;SDS011;1493;51.496;7.210;2023-04-21T10:07:47;29.27;;;20.07;;
2966;SDS011;1493;51.496;7.210;2023-04-21T10:10:15;22.13;;;19.73;;
2966;SDS011;1493;51.496;7.210;2023-04-21T10:12:48;26.50;;;20.63;;
2966;SDS011;1493;51.496;7.210;2023-04-21T10:15:30;28.80;;;22.77;;
2966;SDS011;1493;51.496;7.210;2023-04-21T10:18:10;24.97;;;22.20;;
2966;SDS011;1493;51.496;7.210;2023-04-21T10:20:51;23.47;;;20.43;;
2966;SDS011;1493;51.496;7.210;2023-04-21T10:23:29;29.17;;;21.50;;
2966;SDS011;1493;51.496;7.210;2023-04-21T10:26:01;25.50;;;20.50;;
2966;SDS011;1493;51.496;7.210;2023-04-21T10:28:41;23.53;;;19.73;;
2966;SDS011;1493;51.496;7.210;2023-04-21T10:31:24;26.70;;;21.67;;
2966;SDS011;1493;51.496;7.210;2023-04-21T10:36:48;22.93;;;20.07;;
2966;SDS011;1493;51.496;7.210;2023-04-21T10:39:42;22.70;;;18.60;;
2966;SDS011;1493;51.496;7.210;2023-04-21T10:42:18;23.67;;;20.17;;
2966;SDS011;1493;51.496;7.210;2023-04-21T10:45:05;25.40;;;20.40;;
2966;SDS011;1493;51.496;7.210;2023-04-21T10:47:38;24.43;;;20.50;;
2966;SDS011;1493;51.496;7.210;2023-04-21T10:50:12;24.50;;;19.87;;
2966;SDS011;1493;51.496;7.210;2023-04-21T10:52:50;26.70;;;21.07;;
2966;SDS011;1493;51.496;7.210;2023-04-21T10:55:19;23.33;;;19.60;;
2966;SDS011;1493;51.496;7.210;2023-04-21T10:57:46;25.13;;;19.47;;
2966;SDS011;1493;51.496;7.210;2023-04-21T11:00:14;23.67;;;20.00;;
2966;SDS011;1493;51.496;7.210;2023-04-21T11:02:44;23.37;;;18.93;;
2966;SDS011;1493;51.496;7.210;2023-04-21T11:05:19;22.63;;;20.23;;
2966;SDS011;1493;51.496;7.210;2023-04-21T11:08:00;22.87;;;20.07;;
2966;SDS011;1493;51.496;7.210;2023-04-21T11:10:28;22.67;;;19.33;;
2966;SDS011;1493;51.496;7.210;2023-04-21T11:12:56;25.40;;;20.43;;
2966;SDS011;1493;51.496;7.210;2023-04-21T11:15:23;23.63;;;19.37;;
2966;SDS011;1493;51.496;7.210;2023-04-21T11:17:51;24.73;;;18.63;;
2966;SDS011;1493;51.496;7.210;2023-04-21T11:20:19;20.97;;;17.80;;
2966;SDS011;1493;51.496;7.210;2023-04-21T11:22:48;21.37;;;17.30;;
2966;SDS011;1493;51.496;7.210;2023-04-21T11:25:17;22.77;;;18.50;;
2966;SDS011;1493;51.496;7.210;2023-04-21T11:27:51;23.77;;;18.77;;
2966;SDS011;1493;51.496;7.210;2023-04-21T11:30:19;17.40;;;15.50;;
2966;SDS011;1493;51.496;7.210;2023-04-21T11:32:53;20.43;;;17.07;;
2966;SDS011;1493;51.496;7.210;2023-04-21T11:35:20;17.70;;;14.07;;
2966;SDS011;1493;51.496;7.210;2023-04-21T11:37:48;18.80;;;16.13;;
2966;SDS011;1493;51.496;7.210;2023-04-21T11:40:17;19.00;;;15.80;;
2966;SDS011;1493;51.496;7.210;2023-04-21T11:42:44;15.27;;;13.67;;
2966;SDS011;1493;51.496;7.210;2023-04-21T11:45:15;16.23;;;14.53;;
2966;SDS011;1493;51.496;7.210;2023-04-21T11:47:43;21.30;;;16.60;;
2966;SDS011;1493;51.496;7.210;2023-04-21T11:50:16;18.23;;;15.07;;
2966;SDS011;1493;51.496;7.210;2023-04-21T11:52:56;18.50;;;15.23;;
2966;SDS011;1493;51.496;7.210;2023-04-21T11:55:22;19.57;;;15.70;;
2966;SDS011;1493;51.496;7.210;2023-04-21T11:57:49;20.40;;;14.87;;
2966;SDS011;1493;51.496;7.210;2023-04-21T12:00:17;18.03;;;16.13;;
2966;SDS011;1493;51.496;7.210;2023-04-21T12:02:52;21.57;;;17.37;;
2966;SDS011;1493;51.496;7.210;2023-04-21T12:05:22;21.50;;;16.80;;
2966;SDS011;1493;51.496;7.210;2023-04-21T12:07:48;18.80;;;15.73;;
2966;SDS011;1493;51.496;7.210;2023-04-21T12:10:17;20.70;;;16.90;;
2966;SDS011;1493;51.496;7.210;2023-04-21T12:12:45;18.00;;;16.10;;
2966;SDS011;1493;51.496;7.210;2023-04-21T12:15:16;19.70;;;16.87;;
2966;SDS011;1493;51.496;7.210;2023-04-21T12:17:44;20.20;;;17.50;;
2966;SDS011;1493;51.496;7.210;2023-04-21T12:20:13;19.27;;;15.90;;
2966;SDS011;1493;51.496;7.210;2023-04-21T12:22:43;19.93;;;17.80;;
2966;SDS011;1493;51.496;7.210;2023-04-21T12:25:10;17.97;;;16.10;;
2966;SDS011;1493;51.496;7.210;2023-04-21T12:27:46;18.97;;;16.57;;
2966;SDS011;1493;51.496;7.210;2023-04-21T12:30:13;21.50;;;17.73;;
2966;SDS011;1493;51.496;7.210;2023-04-21T12:32:40;18.77;;;16.77;;
2966;SDS011;1493;51.496;7.210;2023-04-21T12:35:07;17.90;;;15.77;;
2966;SDS011;1493;51.496;7.210;2023-04-21T12:37:34;17.43;;;15.57;;
2966;SDS011;1493;51.496;7.210;2023-04-21T12:40:03;18.53;;;16.73;;
2966;SDS011;1493;51.496;7.210;2023-04-21T12:42:31;17.57;;;15.60;;
2966;SDS011;1493;51.496;7.210;2023-04-21T12:44:57;18.57;;;16.50;;
2966;SDS011;1493;51.496;7.210;2023-04-21T12:47:25;18.20;;;15.87;;
2966;SDS011;1493;51.496;7.210;2023-04-21T12:49:52;17.13;;;15.43;;
2966;SDS011;1493;51.496;7.210;2023-04-21T12:52:19;17.80;;;16.00;;
2966;SDS011;1493;51.496;7.210;2023-04-21T12:54:45;17.03;;;15.23;;
2966;SDS011;1493;51.496;7.210;2023-04-21T12:57:14;14.40;;;13.00;;
2966;SDS011;1493;51.496;7.210;2023-04-21T12:59:40;16.87;;;15.17;;
2966;SDS011;1493;51.496;7.210;2023-04-21T13:02:07;15.77;;;14.07;;
2966;SDS011;1493;51.496;7.210;2023-04-21T13:04:34;14.37;;;12.90;;
2966;SDS011;1493;51.496;7.210;2023-04-21T13:07:02;14.10;;;12.70;;
2966;SDS011;1493;51.496;7.210;2023-04-21T13:09:29;15.70;;;13.80;;
2966;SDS011;1493;51.496;7.210;2023-04-21T13:11:57;16.70;;;13.00;;
2966;SDS011;1493;51.496;7.210;2023-04-21T13:14:27;15.40;;;13.90;;
2966;SDS011;1493;51.496;7.210;2023-04-21T13:16:54;16.03;;;14.30;;
2966;SDS011;1493;51.496;7.210;2023-04-21T13:19:21;15.37;;;13.77;;
2966;SDS011;1493;51.496;7.210;2023-04-21T13:21:48;15.10;;;13.60;;
2966;SDS011;1493;51.496;7.210;2023-04-21T13:24:14;15.63;;;14.00;;
2966;SDS011;1493;51.496;7.210;2023-04-21T13:26:41;15.87;;;13.07;;
2966;SDS011;1493;51.496;7.210;2023-04-21T13:29:08;15.10;;;13.60;;
2966;SDS011;1493;51.496;7.210;2023-04-21T13:31:36;16.57;;;14.60;;
2966;SDS011;1493;51.496;7.210;2023-04-21T13:34:03;15.90;;;14.30;;
2966;SDS011;1493;51.496;7.210;2023-04-21T13:36:30;14.93;;;13.17;;
2966;SDS011;1493;51.496;7.210;2023-04-21T13:38:57;15.77;;;14.10;;
2966;SDS011;1493;51.496;7.210;2023-04-21T13:41:24;15.77;;;13.20;;
2966;SDS011;1493;51.496;7.210;2023-04-21T13:43:51;14.97;;;13.40;;
2966;SDS011;1493;51.496;7.210;2023-04-21T13:46:18;15.53;;;13.37;;
2966;SDS011;1493;51.496;7.210;2023-04-21T13:48:46;14.53;;;12.07;;
2966;SDS011;1493;51.496;7.210;2023-04-21T13:51:15;13.53;;;11.50;;
2966;SDS011;1493;51.496;7.210;2023-04-21T13:53:41;11.73;;;10.40;;
2966;SDS011;1493;51.496;7.210;2023-04-21T13:56:08;15.63;;;11.17;;
2966;SDS011;1493;51.496;7.210;2023-04-21T13:58:37;13.87;;;12.47;;
2966;SDS011;1493;51.496;7.210;2023-04-21T14:01:04;15.00;;;12.40;;
2966;SDS011;1493;51.496;7.210;2023-04-21T14:03:31;12.50;;;11.20;;
2966;SDS011;1493;51.496;7.210;2023-04-21T14:05:59;12.87;;;11.10;;
2966;SDS011;1493;51.496;7.210;2023-04-21T14:08:26;13.30;;;11.97;;
2966;SDS011;1493;51.496;7.210;2023-04-21T14:10:53;16.43;;;12.20;;
2966;SDS011;1493;51.496;7.210;2023-04-21T14:13:20;12.67;;;11.37;;
2966;SDS011;1493;51.496;7.210;2023-04-21T14:15:47;11.40;;;10.30;;
2966;SDS011;1493;51.496;7.210;2023-04-21T14:18:14;11.30;;;10.13;;
2966;SDS011;1493;51.496;7.210;2023-04-21T14:20:41;12.20;;;10.90;;
2966;SDS011;1493;51.496;7.210;2023-04-21T14:23:09;12.00;;;10.60;;
2966;SDS011;1493;51.496;7.210;2023-04-21T14:25:36;13.00;;;11.63;;
2966;SDS011;1493;51.496;7.210;2023-04-21T14:28:02;10.70;;;9.70;;
2966;SDS011;1493;51.496;7.210;2023-04-21T14:30:32;12.40;;;10.33;;
2966;SDS011;1493;51.496;7.210;2023-04-21T14:33:00;11.97;;;10.87;;
2966;SDS011;1493;51.496;7.210;2023-04-21T14:35:27;9.87;;;8.97;;
2966;SDS011;1493;51.496;7.210;2023-04-21T14:37:54;9.40;;;8.50;;
2966;SDS011;1493;51.496;7.210;2023-04-21T14:40:23;9.40;;;8.50;;
2966;SDS011;1493;51.496;7.210;2023-04-21T14:42:50;8.70;;;7.90;;
2966;SDS011;1493;51.496;7.210;2023-04-21T14:45:17;7.90;;;7.10;;
2966;SDS011;1493;51.496;7.210;2023-04-21T14:47:44;8.63;;;7.83;;
2966;SDS011;1493;51.496;7.210;2023-04-21T14:50:11;8.27;;;7.17;;
2966;SDS011;1493;51.496;7.210;2023-04-21T14:52:38;8.33;;;7.53;;
2966;SDS011;1493;51.496;7.210;2023-04-21T14:55:05;7.87;;;7.17;;
2966;SDS011;1493;51.496;7.210;2023-04-21T14:57:34;7.07;;;6.37;;